Chantaco — FMLM — position and weather

sailwx.info

Track history (hours):
 
Tides and Currents Weather Stations Pressure Air Temp Water Temp Dewpoint Dewpoint Depression Visibility Wind Speed Wind Dir Waves Ship Positions

Chantaco

Last reported at 2017-Dec-17 11:58 UTC. Time now 2017-Dec-17 12:07 UTC.
Position N 41°07' W 008°47'.

Length 143 m; draft 6.2 m.

Type: Tanker. MMSI: 228330700.

Date/timePositionNaut miles runAvg speedWind from/ knotsBaromVisibWave heightAir tempDewpointWater temp
2017-Dec-17 11:58N 41°07' W 008°47'0 0.0
2017-Dec-17 11:28N 41°07' W 008°47'0 0.1
2017-Dec-17 10:58N 41°07' W 008°47'0 0.0
2017-Dec-17 10:31N 41°07' W 008°47'0 0.1
2017-Dec-17 09:58N 41°07' W 008°47'0 0.1
2017-Dec-17 09:30N 41°08' W 008°47'2 3.1
2017-Dec-17 09:00N 41°09' W 008°48'3 7.0
2017-Dec-17 08:30N 41°12' W 008°49'3 5.7
2017-Dec-17 08:01N 41°15' W 008°50'3 5.6
2017-Dec-17 07:28N 41°17' W 008°52'  
2017-Dec-13 05:44N 47°08' W 002°29'0 0.0
2017-Dec-13 04:32N 47°08' W 002°29'0 0.0
2017-Dec-12 16:26N 47°08' W 002°29'0 0.2
2017-Dec-12 15:39N 47°08' W 002°29'1 3.1
2017-Dec-12 15:29N 47°08' W 002°28'19 1.6
2017-Dec-12 03:27N 47°18' W 002°06'0 0.0
2017-Dec-12 02:57N 47°18' W 002°06'0 0.0
2017-Dec-12 02:21N 47°18' W 002°06'0 0.0
2017-Dec-12 01:57N 47°18' W 002°06'0 0.0
2017-Dec-12 01:21N 47°18' W 002°06'0 0.0
2017-Dec-12 00:57N 47°18' W 002°06'0 0.0
2017-Dec-12 00:06N 47°18' W 002°06'0 0.0
2017-Dec-12 00:00N 47°18' W 002°06'0 0.0
2017-Dec-10 05:50N 47°18' W 002°06'0 0.0
2017-Dec-10 05:29N 47°18' W 002°06'0 0.0
2017-Dec-10 04:53N 47°18' W 002°06'0 0.0
2017-Dec-10 04:29N 47°18' W 002°06'0 0.0
2017-Dec-10 03:59N 47°18' W 002°06'0 0.0
2017-Dec-10 03:20N 47°18' W 002°06'0 0.0
2017-Dec-10 02:59N 47°18' W 002°06'0 0.0
2017-Dec-10 02:26N 47°18' W 002°06'0 0.0
2017-Dec-10 01:56N 47°18' W 002°06'0 0.0
2017-Dec-10 01:29N 47°18' W 002°06'0 0.0
2017-Dec-10 00:59N 47°18' W 002°06'0 0.0
2017-Dec-10 00:29N 47°18' W 002°06'0 0.0
2017-Dec-09 23:59N 47°18' W 002°06'0 0.0
2017-Dec-09 23:26N 47°18' W 002°06'0 0.0
2017-Dec-09 22:59N 47°18' W 002°06'0 0.0
2017-Dec-09 22:30N 47°18' W 002°06'0 0.0
2017-Dec-09 22:00N 47°18' W 002°06'0 0.0
2017-Dec-09 21:30N 47°18' W 002°06'0 0.0
2017-Dec-09 21:00N 47°18' W 002°06'0 0.0
2017-Dec-09 20:30N 47°18' W 002°06'0 0.0
2017-Dec-09 20:00N 47°18' W 002°06'0 0.0
2017-Dec-09 19:30N 47°18' W 002°06'0 0.0
2017-Dec-09 19:00N 47°18' W 002°06'0 0.0
2017-Dec-09 18:30N 47°18' W 002°06'0 0.0
2017-Dec-09 18:00N 47°18' W 002°06'0 0.0
2017-Dec-09 17:30N 47°18' W 002°06'0 0.0
2017-Dec-09 17:00N 47°18' W 002°06'0 0.0
2017-Dec-09 16:30N 47°18' W 002°06'0 0.0
2017-Dec-09 16:00N 47°18' W 002°06'0 0.0
2017-Dec-09 15:30N 47°18' W 002°06'0 0.0
2017-Dec-09 15:00N 47°18' W 002°06'0 0.0
2017-Dec-09 14:30N 47°18' W 002°06'0 0.0
2017-Dec-09 14:00N 47°18' W 002°06'0 0.0
2017-Dec-09 13:29N 47°18' W 002°06'0 0.0
2017-Dec-09 13:00N 47°18' W 002°06'0 0.0
2017-Dec-09 12:30N 47°18' W 002°06'0 0.0
2017-Dec-09 12:00N 47°18' W 002°06'0 0.0
2017-Dec-09 11:30N 47°18' W 002°06'0 0.0
2017-Dec-09 11:00N 47°18' W 002°06'0 0.0
2017-Dec-09 10:30N 47°18' W 002°06'0 0.0
2017-Dec-09 10:00N 47°18' W 002°06'0 0.0
2017-Dec-09 09:30N 47°18' W 002°06'0 0.0
2017-Dec-09 09:00N 47°18' W 002°06'0 0.0
2017-Dec-09 08:30N 47°18' W 002°06'0 0.0
2017-Dec-09 08:00N 47°18' W 002°06'0 0.0
2017-Dec-09 07:30N 47°18' W 002°06'0 0.0
2017-Dec-09 07:00N 47°18' W 002°06'0 0.0
2017-Dec-09 06:30N 47°18' W 002°06'0 0.0
2017-Dec-09 06:00N 47°18' W 002°06'0 0.0
2017-Dec-09 05:30N 47°18' W 002°06'0 0.0
2017-Dec-09 05:00N 47°18' W 002°06'0 0.0
2017-Dec-09 04:30N 47°18' W 002°06'0 0.0
2017-Dec-09 04:00N 47°18' W 002°06'0 0.0
2017-Dec-09 03:30N 47°18' W 002°06'0 0.0
2017-Dec-09 03:00N 47°18' W 002°06'0 0.0
2017-Dec-09 02:30N 47°18' W 002°06'0 0.0
2017-Dec-09 02:00N 47°18' W 002°06'0 0.0
2017-Dec-09 01:30N 47°18' W 002°06'0 0.0
2017-Dec-09 01:00N 47°18' W 002°06'0 0.0
2017-Dec-09 00:30N 47°18' W 002°06'0 0.0
2017-Dec-09 00:00N 47°18' W 002°06'0 0.0
2017-Dec-08 23:30N 47°18' W 002°06'0 0.0
2017-Dec-08 23:00N 47°18' W 002°06'0 0.0
2017-Dec-08 22:30N 47°18' W 002°06'0 0.0
2017-Dec-08 22:00N 47°18' W 002°06'0 0.0
2017-Dec-08 21:30N 47°18' W 002°06'0 0.0
2017-Dec-08 21:00N 47°18' W 002°06'0 0.0
2017-Dec-08 20:30N 47°18' W 002°06'0 0.0
2017-Dec-08 20:00N 47°18' W 002°06'0 0.0
2017-Dec-08 19:30N 47°18' W 002°06'0 0.0
2017-Dec-08 19:00N 47°18' W 002°06'0 0.0
2017-Dec-08 18:30N 47°18' W 002°06'0 0.0
2017-Dec-08 18:00N 47°18' W 002°06'0 0.0
2017-Dec-08 17:30N 47°18' W 002°06'0 0.0
2017-Dec-08 17:00N 47°18' W 002°06'0 0.0
2017-Dec-08 16:30N 47°18' W 002°06'0 0.0
2017-Dec-08 16:00N 47°18' W 002°06'0 0.0
2017-Dec-08 15:30N 47°18' W 002°06'0 0.0
2017-Dec-08 15:00N 47°18' W 002°06'0 0.0
2017-Dec-08 14:30N 47°18' W 002°06'0 0.0
2017-Dec-08 14:00N 47°18' W 002°06'0 0.0
2017-Dec-08 13:30N 47°18' W 002°06'0 0.0
2017-Dec-08 13:00N 47°18' W 002°06'0 0.0
2017-Dec-08 12:30N 47°18' W 002°06'0 0.0
2017-Dec-08 12:00N 47°18' W 002°06'0 0.0
2017-Dec-08 11:30N 47°18' W 002°06'0 0.0
2017-Dec-08 11:00N 47°18' W 002°06'0 0.0
2017-Dec-08 10:30N 47°18' W 002°06'0 0.0
2017-Dec-08 10:00N 47°18' W 002°06'0 0.0
2017-Dec-08 09:30N 47°18' W 002°06'0 0.0
2017-Dec-08 09:00N 47°18' W 002°06'0 0.0
2017-Dec-08 08:30N 47°18' W 002°06'0 0.0
2017-Dec-08 08:00N 47°18' W 002°06'0 0.1
2017-Dec-08 07:30N 47°18' W 002°06'2 4.3
2017-Dec-08 07:00N 47°18' W 002°09'611.4
2017-Dec-08 06:30N 47°14' W 002°15'611.0
2017-Dec-08 06:00N 47°09' W 002°19'4 7.8
2017-Dec-08 05:30N 47°08' W 002°25'2 4.2
2017-Dec-08 04:58N 47°08' W 002°28'0 0.1
2017-Dec-08 04:25N 47°08' W 002°28'0 0.1
2017-Dec-08 03:58N 47°08' W 002°28'0 0.0
2017-Dec-08 03:22N 47°08' W 002°28'0 0.0
2017-Dec-08 02:55N 47°08' W 002°28'0 0.0
2017-Dec-08 02:28N 47°08' W 002°28'0 0.0
2017-Dec-08 01:58N 47°08' W 002°28'0 0.1
2017-Dec-08 01:25N 47°08' W 002°28'0 0.0
2017-Dec-08 00:58N 47°08' W 002°28'0 0.1
2017-Dec-08 00:25N 47°08' W 002°28'0 0.1
2017-Dec-07 23:55N 47°08' W 002°28'0 0.1
2017-Dec-07 23:07N 47°08' W 002°28'0 0.1
2017-Dec-07 22:58N 47°08' W 002°28'0 0.1
2017-Dec-07 22:28N 47°08' W 002°28'0 0.1
2017-Dec-07 21:58N 47°08' W 002°28'0 0.1
2017-Dec-07 21:22N 47°08' W 002°28'0 0.0
2017-Dec-07 20:55N 47°08' W 002°28'0 0.1
2017-Dec-07 20:28N 47°08' W 002°28'0 0.1
2017-Dec-07 19:58N 47°08' W 002°28'0 0.0
2017-Dec-07 19:25N 47°08' W 002°28'0 0.0
2017-Dec-07 18:49N 47°08' W 002°28'0 0.0
2017-Dec-07 18:16N 47°08' W 002°28'0 0.0
2017-Dec-07 17:52N 47°08' W 002°28'0 0.0
2017-Dec-07 17:28N 47°08' W 002°28'0 0.0
2017-Dec-07 16:49N 47°08' W 002°28'0 0.0
2017-Dec-07 16:28N 47°08' W 002°28'0 0.0
2017-Dec-07 15:52N 47°08' W 002°28'0 0.0
2017-Dec-07 15:28N 47°08' W 002°28'0 0.0
2017-Dec-07 14:58N 47°08' W 002°28'0 0.0
2017-Dec-07 14:25N 47°08' W 002°28'0 0.0
2017-Dec-07 13:55N 47°08' W 002°28'0 0.0
2017-Dec-07 12:07N 47°08' W 002°28'  
Track history (hours):
 
Tides and Currents Weather Stations Pressure Air Temp Water Temp Dewpoint Dewpoint Depression Visibility Wind Speed Wind Dir Waves Ship Positions

Chantaco

Last reported at 2017-Dec-17 11:58 UTC. Time now 2017-Dec-17 12:07 UTC.
Position N 41°07' W 008°47'.

Length 143 m; draft 6.2 m.

Type: Tanker. MMSI: 228330700.

Date/timePositionNaut miles runAvg speedWind from/ knotsBaromVisibWave heightAir tempDewpointWater temp
2017-Dec-17 11:58N 41°07' W 008°47'0 0.0
2017-Dec-17 11:28N 41°07' W 008°47'0 0.1
2017-Dec-17 10:58N 41°07' W 008°47'0 0.0
2017-Dec-17 10:31N 41°07' W 008°47'0 0.1
2017-Dec-17 09:58N 41°07' W 008°47'0 0.1
2017-Dec-17 09:30N 41°08' W 008°47'2 3.1
2017-Dec-17 09:00N 41°09' W 008°48'3 7.0
2017-Dec-17 08:30N 41°12' W 008°49'3 5.7
2017-Dec-17 08:01N 41°15' W 008°50'3 5.6
2017-Dec-17 07:28N 41°17' W 008°52'  
2017-Dec-13 05:44N 47°08' W 002°29'0 0.0
2017-Dec-13 04:32N 47°08' W 002°29'0 0.0
2017-Dec-12 16:26N 47°08' W 002°29'0 0.2
2017-Dec-12 15:39N 47°08' W 002°29'1 3.1
2017-Dec-12 15:29N 47°08' W 002°28'19 1.6
2017-Dec-12 03:27N 47°18' W 002°06'0 0.0
2017-Dec-12 02:57N 47°18' W 002°06'0 0.0
2017-Dec-12 02:21N 47°18' W 002°06'0 0.0
2017-Dec-12 01:57N 47°18' W 002°06'0 0.0
2017-Dec-12 01:21N 47°18' W 002°06'0 0.0
2017-Dec-12 00:57N 47°18' W 002°06'0 0.0
2017-Dec-12 00:06N 47°18' W 002°06'0 0.0
2017-Dec-12 00:00N 47°18' W 002°06'0 0.0
2017-Dec-10 05:50N 47°18' W 002°06'0 0.0
2017-Dec-10 05:29N 47°18' W 002°06'0 0.0
2017-Dec-10 04:53N 47°18' W 002°06'0 0.0
2017-Dec-10 04:29N 47°18' W 002°06'0 0.0
2017-Dec-10 03:59N 47°18' W 002°06'0 0.0
2017-Dec-10 03:20N 47°18' W 002°06'0 0.0
2017-Dec-10 02:59N 47°18' W 002°06'0 0.0
2017-Dec-10 02:26N 47°18' W 002°06'0 0.0
2017-Dec-10 01:56N 47°18' W 002°06'0 0.0
2017-Dec-10 01:29N 47°18' W 002°06'0 0.0
2017-Dec-10 00:59N 47°18' W 002°06'0 0.0
2017-Dec-10 00:29N 47°18' W 002°06'0 0.0
2017-Dec-09 23:59N 47°18' W 002°06'0 0.0
2017-Dec-09 23:26N 47°18' W 002°06'0 0.0
2017-Dec-09 22:59N 47°18' W 002°06'0 0.0
2017-Dec-09 22:30N 47°18' W 002°06'0 0.0
2017-Dec-09 22:00N 47°18' W 002°06'0 0.0
2017-Dec-09 21:30N 47°18' W 002°06'0 0.0
2017-Dec-09 21:00N 47°18' W 002°06'0 0.0
2017-Dec-09 20:30N 47°18' W 002°06'0 0.0
2017-Dec-09 20:00N 47°18' W 002°06'0 0.0
2017-Dec-09 19:30N 47°18' W 002°06'0 0.0
2017-Dec-09 19:00N 47°18' W 002°06'0 0.0
2017-Dec-09 18:30N 47°18' W 002°06'0 0.0
2017-Dec-09 18:00N 47°18' W 002°06'0 0.0
2017-Dec-09 17:30N 47°18' W 002°06'0 0.0
2017-Dec-09 17:00N 47°18' W 002°06'0 0.0
2017-Dec-09 16:30N 47°18' W 002°06'0 0.0
2017-Dec-09 16:00N 47°18' W 002°06'0 0.0
2017-Dec-09 15:30N 47°18' W 002°06'0 0.0
2017-Dec-09 15:00N 47°18' W 002°06'0 0.0
2017-Dec-09 14:30N 47°18' W 002°06'0 0.0
2017-Dec-09 14:00N 47°18' W 002°06'0 0.0
2017-Dec-09 13:29N 47°18' W 002°06'0 0.0
2017-Dec-09 13:00N 47°18' W 002°06'0 0.0
2017-Dec-09 12:30N 47°18' W 002°06'0 0.0
2017-Dec-09 12:00N 47°18' W 002°06'0 0.0
2017-Dec-09 11:30N 47°18' W 002°06'0 0.0
2017-Dec-09 11:00N 47°18' W 002°06'0 0.0
2017-Dec-09 10:30N 47°18' W 002°06'0 0.0
2017-Dec-09 10:00N 47°18' W 002°06'0 0.0
2017-Dec-09 09:30N 47°18' W 002°06'0 0.0
2017-Dec-09 09:00N 47°18' W 002°06'0 0.0
2017-Dec-09 08:30N 47°18' W 002°06'0 0.0
2017-Dec-09 08:00N 47°18' W 002°06'0 0.0
2017-Dec-09 07:30N 47°18' W 002°06'0 0.0
2017-Dec-09 07:00N 47°18' W 002°06'0 0.0
2017-Dec-09 06:30N 47°18' W 002°06'0 0.0
2017-Dec-09 06:00N 47°18' W 002°06'0 0.0
2017-Dec-09 05:30N 47°18' W 002°06'0 0.0
2017-Dec-09 05:00N 47°18' W 002°06'0 0.0
2017-Dec-09 04:30N 47°18' W 002°06'0 0.0
2017-Dec-09 04:00N 47°18' W 002°06'0 0.0
2017-Dec-09 03:30N 47°18' W 002°06'0 0.0
2017-Dec-09 03:00N 47°18' W 002°06'0 0.0
2017-Dec-09 02:30N 47°18' W 002°06'0 0.0
2017-Dec-09 02:00N 47°18' W 002°06'0 0.0
2017-Dec-09 01:30N 47°18' W 002°06'0 0.0
2017-Dec-09 01:00N 47°18' W 002°06'0 0.0
2017-Dec-09 00:30N 47°18' W 002°06'0 0.0
2017-Dec-09 00:00N 47°18' W 002°06'0 0.0
2017-Dec-08 23:30N 47°18' W 002°06'0 0.0
2017-Dec-08 23:00N 47°18' W 002°06'0 0.0
2017-Dec-08 22:30N 47°18' W 002°06'0 0.0
2017-Dec-08 22:00N 47°18' W 002°06'0 0.0
2017-Dec-08 21:30N 47°18' W 002°06'0 0.0
2017-Dec-08 21:00N 47°18' W 002°06'0 0.0
2017-Dec-08 20:30N 47°18' W 002°06'0 0.0
2017-Dec-08 20:00N 47°18' W 002°06'0 0.0
2017-Dec-08 19:30N 47°18' W 002°06'0 0.0
2017-Dec-08 19:00N 47°18' W 002°06'0 0.0
2017-Dec-08 18:30N 47°18' W 002°06'0 0.0
2017-Dec-08 18:00N 47°18' W 002°06'0 0.0
2017-Dec-08 17:30N 47°18' W 002°06'0 0.0
2017-Dec-08 17:00N 47°18' W 002°06'0 0.0
2017-Dec-08 16:30N 47°18' W 002°06'0 0.0
2017-Dec-08 16:00N 47°18' W 002°06'0 0.0
2017-Dec-08 15:30N 47°18' W 002°06'0 0.0
2017-Dec-08 15:00N 47°18' W 002°06'0 0.0
2017-Dec-08 14:30N 47°18' W 002°06'0 0.0
2017-Dec-08 14:00N 47°18' W 002°06'0 0.0
2017-Dec-08 13:30N 47°18' W 002°06'0 0.0
2017-Dec-08 13:00N 47°18' W 002°06'0 0.0
2017-Dec-08 12:30N 47°18' W 002°06'0 0.0
2017-Dec-08 12:00N 47°18' W 002°06'0 0.0
2017-Dec-08 11:30N 47°18' W 002°06'0 0.0
2017-Dec-08 11:00N 47°18' W 002°06'0 0.0
2017-Dec-08 10:30N 47°18' W 002°06'0 0.0
2017-Dec-08 10:00N 47°18' W 002°06'0 0.0
2017-Dec-08 09:30N 47°18' W 002°06'0 0.0
2017-Dec-08 09:00N 47°18' W 002°06'0 0.0
2017-Dec-08 08:30N 47°18' W 002°06'0 0.0
2017-Dec-08 08:00N 47°18' W 002°06'0 0.1
2017-Dec-08 07:30N 47°18' W 002°06'2 4.3
2017-Dec-08 07:00N 47°18' W 002°09'611.4
2017-Dec-08 06:30N 47°14' W 002°15'611.0
2017-Dec-08 06:00N 47°09' W 002°19'4 7.8
2017-Dec-08 05:30N 47°08' W 002°25'2 4.2
2017-Dec-08 04:58N 47°08' W 002°28'0 0.1
2017-Dec-08 04:25N 47°08' W 002°28'0 0.1
2017-Dec-08 03:58N 47°08' W 002°28'0 0.0
2017-Dec-08 03:22N 47°08' W 002°28'0 0.0
2017-Dec-08 02:55N 47°08' W 002°28'0 0.0
2017-Dec-08 02:28N 47°08' W 002°28'0 0.0
2017-Dec-08 01:58N 47°08' W 002°28'0 0.1
2017-Dec-08 01:25N 47°08' W 002°28'0 0.0
2017-Dec-08 00:58N 47°08' W 002°28'0 0.1
2017-Dec-08 00:25N 47°08' W 002°28'0 0.1
2017-Dec-07 23:55N 47°08' W 002°28'0 0.1
2017-Dec-07 23:07N 47°08' W 002°28'0 0.1
2017-Dec-07 22:58N 47°08' W 002°28'0 0.1
2017-Dec-07 22:28N 47°08' W 002°28'0 0.1
2017-Dec-07 21:58N 47°08' W 002°28'0 0.1
2017-Dec-07 21:22N 47°08' W 002°28'0 0.0
2017-Dec-07 20:55N 47°08' W 002°28'0 0.1
2017-Dec-07 20:28N 47°08' W 002°28'0 0.1
2017-Dec-07 19:58N 47°08' W 002°28'0 0.0
2017-Dec-07 19:25N 47°08' W 002°28'0 0.0
2017-Dec-07 18:49N 47°08' W 002°28'0 0.0
2017-Dec-07 18:16N 47°08' W 002°28'0 0.0
2017-Dec-07 17:52N 47°08' W 002°28'0 0.0
2017-Dec-07 17:28N 47°08' W 002°28'0 0.0
2017-Dec-07 16:49N 47°08' W 002°28'0 0.0
2017-Dec-07 16:28N 47°08' W 002°28'0 0.0
2017-Dec-07 15:52N 47°08' W 002°28'0 0.0
2017-Dec-07 15:28N 47°08' W 002°28'0 0.0
2017-Dec-07 14:58N 47°08' W 002°28'0 0.0
2017-Dec-07 14:25N 47°08' W 002°28'0 0.0
2017-Dec-07 13:55N 47°08' W 002°28'0 0.0
2017-Dec-07 12:07N 47°08' W 002°28'  

Dump ship's entire track history